sensor_id;sensor_type;location;lat;lon;timestamp;temperature;humidity
13426;DHT22;6785;57.918;12.530;2023-06-10T00:02:20;11.80;99.70
13426;DHT22;6785;57.918;12.530;2023-06-10T00:04:48;11.70;99.30
13426;DHT22;6785;57.918;12.530;2023-06-10T00:07:15;11.60;99.90
13426;DHT22;6785;57.918;12.530;2023-06-10T00:09:42;11.50;99.90
13426;DHT22;6785;57.918;12.530;2023-06-10T00:12:09;11.40;99.90
13426;DHT22;6785;57.918;12.530;2023-06-10T00:14:38;11.40;99.90
13426;DHT22;6785;57.918;12.530;2023-06-10T00:17:07;11.30;99.90
13426;DHT22;6785;57.918;12.530;2023-06-10T00:19:35;11.40;99.90
13426;DHT22;6785;57.918;12.530;2023-06-10T00:22:02;11.30;99.90
13426;DHT22;6785;57.918;12.530;2023-06-10T00:24:30;11.20;99.90
13426;DHT22;6785;57.918;12.530;2023-06-10T00:26:57;11.20;99.90
13426;DHT22;6785;57.918;12.530;2023-06-10T00:29:24;11.20;99.90
13426;DHT22;6785;57.918;12.530;2023-06-10T00:31:51;11.10;99.90
13426;DHT22;6785;57.918;12.530;2023-06-10T00:34:20;11.10;99.90
13426;DHT22;6785;57.918;12.530;2023-06-10T00:36:48;11.00;99.90
13426;DHT22;6785;57.918;12.530;2023-06-10T00:39:14;11.00;99.90
13426;DHT22;6785;57.918;12.530;2023-06-10T00:41:42;11.00;99.90
13426;DHT22;6785;57.918;12.530;2023-06-10T00:44:09;10.90;99.90
13426;DHT22;6785;57.918;12.530;2023-06-10T00:46:36;10.80;99.90
13426;DHT22;6785;57.918;12.530;2023-06-10T00:49:03;10.70;99.90
13426;DHT22;6785;57.918;12.530;2023-06-10T00:51:31;10.70;99.90
13426;DHT22;6785;57.918;12.530;2023-06-10T00:53:58;10.60;99.90
13426;DHT22;6785;57.918;12.530;2023-06-10T00:56:25;10.50;99.90
13426;DHT22;6785;57.918;12.530;2023-06-10T00:58:54;10.50;99.90
13426;DHT22;6785;57.918;12.530;2023-06-10T01:01:21;10.40;99.90
13426;DHT22;6785;57.918;12.530;2023-06-10T01:03:49;10.40;99.90
13426;DHT22;6785;57.918;12.530;2023-06-10T01:06:31;10.30;99.90
13426;DHT22;6785;57.918;12.530;2023-06-10T01:09:18;10.30;99.90
13426;DHT22;6785;57.918;12.530;2023-06-10T01:11:58;10.20;99.90
13426;DHT22;6785;57.918;12.530;2023-06-10T01:14:33;10.20;99.90
13426;DHT22;6785;57.918;12.530;2023-06-10T01:17:01;10.20;99.90
13426;DHT22;6785;57.918;12.530;2023-06-10T01:19:29;10.20;99.90
13426;DHT22;6785;57.918;12.530;2023-06-10T01:21:58;10.20;99.90
13426;DHT22;6785;57.918;12.530;2023-06-10T01:24:26;10.10;99.90
13426;DHT22;6785;57.918;12.530;2023-06-10T01:26:55;10.10;99.90
13426;DHT22;6785;57.918;12.530;2023-06-10T01:29:30;10.00;99.90
13426;DHT22;6785;57.918;12.530;2023-06-10T01:32:08;10.00;99.90
13426;DHT22;6785;57.918;12.530;2023-06-10T01:34:41;9.90;99.90
13426;DHT22;6785;57.918;12.530;2023-06-10T01:37:13;9.80;99.90
13426;DHT22;6785;57.918;12.530;2023-06-10T01:39:45;9.80;99.90
13426;DHT22;6785;57.918;12.530;2023-06-10T01:42:14;9.80;99.90
13426;DHT22;6785;57.918;12.530;2023-06-10T01:44:42;9.80;99.90
13426;DHT22;6785;57.918;12.530;2023-06-10T01:47:09;9.70;99.90
13426;DHT22;6785;57.918;12.530;2023-06-10T01:49:36;9.60;99.90
13426;DHT22;6785;57.918;12.530;2023-06-10T01:52:03;9.50;99.90
13426;DHT22;6785;57.918;12.530;2023-06-10T01:54:33;9.50;99.90
13426;DHT22;6785;57.918;12.530;2023-06-10T01:57:01;9.40;99.90
13426;DHT22;6785;57.918;12.530;2023-06-10T01:59:28;9.40;99.90
13426;DHT22;6785;57.918;12.530;2023-06-10T02:01:55;9.30;99.90
13426;DHT22;6785;57.918;12.530;2023-06-10T02:04:21;9.30;99.90
13426;DHT22;6785;57.918;12.530;2023-06-10T02:06:48;9.20;99.90
13426;DHT22;6785;57.918;12.530;2023-06-10T02:09:16;9.20;99.90
13426;DHT22;6785;57.918;12.530;2023-06-10T02:11:45;9.20;99.90
13426;DHT22;6785;57.918;12.530;2023-06-10T02:14:12;9.10;99.90
13426;DHT22;6785;57.918;12.530;2023-06-10T02:16:39;9.10;99.90
13426;DHT22;6785;57.918;12.530;2023-06-10T02:19:07;9.00;99.90
13426;DHT22;6785;57.918;12.530;2023-06-10T02:21:33;9.00;99.90
13426;DHT22;6785;57.918;12.530;2023-06-10T02:24:00;9.10;99.90
13426;DHT22;6785;57.918;12.530;2023-06-10T02:26:28;9.10;99.90
13426;DHT22;6785;57.918;12.530;2023-06-10T02:28:57;9.10;99.90
13426;DHT22;6785;57.918;12.530;2023-06-10T02:31:23;9.10;99.90
13426;DHT22;6785;57.918;12.530;2023-06-10T02:33:51;9.10;99.90
13426;DHT22;6785;57.918;12.530;2023-06-10T02:36:17;9.10;99.90
13426;DHT22;6785;57.918;12.530;2023-06-10T02:38:47;9.10;99.90
13426;DHT22;6785;57.918;12.530;2023-06-10T02:41:14;9.10;99.90
13426;DHT22;6785;57.918;12.530;2023-06-10T02:43:41;9.10;99.90
13426;DHT22;6785;57.918;12.530;2023-06-10T02:46:10;9.10;99.90
13426;DHT22;6785;57.918;12.530;2023-06-10T02:48:41;9.00;99.90
13426;DHT22;6785;57.918;12.530;2023-06-10T02:51:09;9.00;99.90
13426;DHT22;6785;57.918;12.530;2023-06-10T02:53:36;8.90;99.90
13426;DHT22;6785;57.918;12.530;2023-06-10T02:56:03;8.90;99.90
13426;DHT22;6785;57.918;12.530;2023-06-10T02:58:30;8.90;99.90
13426;DHT22;6785;57.918;12.530;2023-06-10T03:00:57;8.90;99.90
13426;DHT22;6785;57.918;12.530;2023-06-10T03:03:26;8.90;99.90
13426;DHT22;6785;57.918;12.530;2023-06-10T03:05:53;8.90;99.90
13426;DHT22;6785;57.918;12.530;2023-06-10T03:08:20;8.80;99.90
13426;DHT22;6785;57.918;12.530;2023-06-10T03:10:46;8.90;99.90
13426;DHT22;6785;57.918;12.530;2023-06-10T03:13:13;8.90;99.90
13426;DHT22;6785;57.918;12.530;2023-06-10T03:15:40;8.90;99.90
13426;DHT22;6785;57.918;12.530;2023-06-10T03:18:07;8.90;99.90
13426;DHT22;6785;57.918;12.530;2023-06-10T03:20:36;8.90;99.90
13426;DHT22;6785;57.918;12.530;2023-06-10T03:23:04;8.90;99.90
13426;DHT22;6785;57.918;12.530;2023-06-10T03:25:32;8.90;99.90
13426;DHT22;6785;57.918;12.530;2023-06-10T03:27:59;8.90;99.90
13426;DHT22;6785;57.918;12.530;2023-06-10T03:30:27;8.90;99.90
13426;DHT22;6785;57.918;12.530;2023-06-10T03:32:54;8.90;99.90
13426;DHT22;6785;57.918;12.530;2023-06-10T03:35:21;8.90;99.90
13426;DHT22;6785;57.918;12.530;2023-06-10T03:37:49;8.90;99.90
13426;DHT22;6785;57.918;12.530;2023-06-10T03:40:16;8.90;99.90
13426;DHT22;6785;57.918;12.530;2023-06-10T03:42:43;9.00;99.90
13426;DHT22;6785;57.918;12.530;2023-06-10T03:45:11;9.10;99.90
13426;DHT22;6785;57.918;12.530;2023-06-10T03:47:38;9.10;99.90
13426;DHT22;6785;57.918;12.530;2023-06-10T03:50:07;9.20;99.90
13426;DHT22;6785;57.918;12.530;2023-06-10T03:52:35;9.30;99.90
13426;DHT22;6785;57.918;12.530;2023-06-10T03:55:06;9.40;99.90
13426;DHT22;6785;57.918;12.530;2023-06-10T03:57:34;9.50;99.90
13426;DHT22;6785;57.918;12.530;2023-06-10T04:00:03;9.50;99.90
13426;DHT22;6785;57.918;12.530;2023-06-10T04:02:33;9.50;99.90
13426;DHT22;6785;57.918;12.530;2023-06-10T04:05:00;9.60;99.90
13426;DHT22;6785;57.918;12.530;2023-06-10T04:07:27;9.70;99.90
13426;DHT22;6785;57.918;12.530;2023-06-10T04:09:56;9.70;99.90
13426;DHT22;6785;57.918;12.530;2023-06-10T04:12:24;9.80;99.90
13426;DHT22;6785;57.918;12.530;2023-06-10T04:14:51;9.80;99.90
13426;DHT22;6785;57.918;12.530;2023-06-10T04:17:18;9.90;99.90
13426;DHT22;6785;57.918;12.530;2023-06-10T04:19:45;9.90;99.90
13426;DHT22;6785;57.918;12.530;2023-06-10T04:22:13;10.00;99.90
13426;DHT22;6785;57.918;12.530;2023-06-10T04:24:40;10.00;99.90
13426;DHT22;6785;57.918;12.530;2023-06-10T04:27:08;10.00;99.90
13426;DHT22;6785;57.918;12.530;2023-06-10T04:29:37;10.10;99.90
13426;DHT22;6785;57.918;12.530;2023-06-10T04:32:04;10.10;99.90
13426;DHT22;6785;57.918;12.530;2023-06-10T04:34:32;10.20;99.90
13426;DHT22;6785;57.918;12.530;2023-06-10T04:36:59;10.20;99.90
13426;DHT22;6785;57.918;12.530;2023-06-10T04:39:27;10.10;99.90
13426;DHT22;6785;57.918;12.530;2023-06-10T04:41:53;10.10;99.90
13426;DHT22;6785;57.918;12.530;2023-06-10T04:44:20;10.20;99.90
13426;DHT22;6785;57.918;12.530;2023-06-10T04:46:49;10.30;99.90
13426;DHT22;6785;57.918;12.530;2023-06-10T04:49:16;10.40;99.90
13426;DHT22;6785;57.918;12.530;2023-06-10T04:51:43;10.50;99.90
13426;DHT22;6785;57.918;12.530;2023-06-10T04:54:10;10.70;99.90
13426;DHT22;6785;57.918;12.530;2023-06-10T04:56:37;10.60;99.90
13426;DHT22;6785;57.918;12.530;2023-06-10T04:59:05;10.80;99.90
13426;DHT22;6785;57.918;12.530;2023-06-10T05:01:32;10.90;99.90
13426;DHT22;6785;57.918;12.530;2023-06-10T05:04:00;11.00;99.90
13426;DHT22;6785;57.918;12.530;2023-06-10T05:06:27;11.10;99.90
13426;DHT22;6785;57.918;12.530;2023-06-10T05:08:54;11.30;99.90
13426;DHT22;6785;57.918;12.530;2023-06-10T05:11:21;11.30;99.90
13426;DHT22;6785;57.918;12.530;2023-06-10T05:13:47;11.40;99.90
13426;DHT22;6785;57.918;12.530;2023-06-10T05:16:15;11.60;99.90
13426;DHT22;6785;57.918;12.530;2023-06-10T05:18:42;11.70;99.90
13426;DHT22;6785;57.918;12.530;2023-06-10T05:21:11;11.90;99.90
13426;DHT22;6785;57.918;12.530;2023-06-10T05:23:38;12.00;99.90
13426;DHT22;6785;57.918;12.530;2023-06-10T05:26:05;12.10;99.90
13426;DHT22;6785;57.918;12.530;2023-06-10T05:28:32;12.00;99.90
13426;DHT22;6785;57.918;12.530;2023-06-10T05:30:59;12.10;99.90
13426;DHT22;6785;57.918;12.530;2023-06-10T05:33:25;12.20;99.90
13426;DHT22;6785;57.918;12.530;2023-06-10T05:35:52;12.40;99.90
13426;DHT22;6785;57.918;12.530;2023-06-10T05:38:21;12.60;99.90
13426;DHT22;6785;57.918;12.530;2023-06-10T05:40:48;12.70;99.90
13426;DHT22;6785;57.918;12.530;2023-06-10T05:43:14;12.90;99.90
13426;DHT22;6785;57.918;12.530;2023-06-10T05:45:43;13.10;99.90
13426;DHT22;6785;57.918;12.530;2023-06-10T05:48:10;13.20;99.90
13426;DHT22;6785;57.918;12.530;2023-06-10T05:50:37;13.40;99.90
13426;DHT22;6785;57.918;12.530;2023-06-10T05:53:05;13.60;99.90
13426;DHT22;6785;57.918;12.530;2023-06-10T05:55:35;13.80;99.30
13426;DHT22;6785;57.918;12.530;2023-06-10T05:58:01;13.90;99.30
13426;DHT22;6785;57.918;12.530;2023-06-10T06:00:30;14.10;98.60
13426;DHT22;6785;57.918;12.530;2023-06-10T06:02:57;14.30;98.30
13426;DHT22;6785;57.918;12.530;2023-06-10T06:05:24;14.40;97.50
13426;DHT22;6785;57.918;12.530;2023-06-10T06:07:51;14.50;97.70
13426;DHT22;6785;57.918;12.530;2023-06-10T06:10:18;14.60;97.50
13426;DHT22;6785;57.918;12.530;2023-06-10T06:12:47;14.70;97.70
13426;DHT22;6785;57.918;12.530;2023-06-10T06:15:13;14.90;97.60
13426;DHT22;6785;57.918;12.530;2023-06-10T06:17:40;15.10;98.00
13426;DHT22;6785;57.918;12.530;2023-06-10T06:20:08;15.20;97.00
13426;DHT22;6785;57.918;12.530;2023-06-10T06:22:35;15.30;96.90
13426;DHT22;6785;57.918;12.530;2023-06-10T06:25:02;15.50;97.30
13426;DHT22;6785;57.918;12.530;2023-06-10T06:27:30;15.60;98.00
13426;DHT22;6785;57.918;12.530;2023-06-10T06:29:59;15.90;97.20
13426;DHT22;6785;57.918;12.530;2023-06-10T06:32:26;16.10;97.20
13426;DHT22;6785;57.918;12.530;2023-06-10T06:34:53;16.30;96.50
13426;DHT22;6785;57.918;12.530;2023-06-10T06:37:21;16.40;97.60
13426;DHT22;6785;57.918;12.530;2023-06-10T06:39:49;16.60;97.10
13426;DHT22;6785;57.918;12.530;2023-06-10T06:42:16;16.70;97.40
13426;DHT22;6785;57.918;12.530;2023-06-10T06:44:44;16.90;96.80
13426;DHT22;6785;57.918;12.530;2023-06-10T06:47:12;17.00;96.50
13426;DHT22;6785;57.918;12.530;2023-06-10T06:49:39;17.10;95.80
13426;DHT22;6785;57.918;12.530;2023-06-10T06:52:07;17.20;95.60
13426;DHT22;6785;57.918;12.530;2023-06-10T06:54:34;17.20;95.20
13426;DHT22;6785;57.918;12.530;2023-06-10T06:57:01;17.10;96.30
13426;DHT22;6785;57.918;12.530;2023-06-10T06:59:28;17.50;96.10
13426;DHT22;6785;57.918;12.530;2023-06-10T07:01:55;17.60;95.00
13426;DHT22;6785;57.918;12.530;2023-06-10T07:04:24;17.80;95.60
13426;DHT22;6785;57.918;12.530;2023-06-10T07:06:52;17.90;94.80
13426;DHT22;6785;57.918;12.530;2023-06-10T07:09:19;18.10;94.80
13426;DHT22;6785;57.918;12.530;2023-06-10T07:11:46;18.10;95.50
13426;DHT22;6785;57.918;12.530;2023-06-10T07:14:16;18.30;96.00
13426;DHT22;6785;57.918;12.530;2023-06-10T07:16:43;18.30;94.80
13426;DHT22;6785;57.918;12.530;2023-06-10T07:19:11;18.40;94.20
13426;DHT22;6785;57.918;12.530;2023-06-10T07:21:40;18.60;94.70
13426;DHT22;6785;57.918;12.530;2023-06-10T07:24:07;18.80;95.80
13426;DHT22;6785;57.918;12.530;2023-06-10T07:26:34;18.90;95.70
13426;DHT22;6785;57.918;12.530;2023-06-10T07:29:01;19.00;93.70
13426;DHT22;6785;57.918;12.530;2023-06-10T07:31:29;19.10;95.90
13426;DHT22;6785;57.918;12.530;2023-06-10T07:33:56;19.20;94.10
13426;DHT22;6785;57.918;12.530;2023-06-10T07:36:23;18.90;93.50
13426;DHT22;6785;57.918;12.530;2023-06-10T07:38:53;19.00;93.50
13426;DHT22;6785;57.918;12.530;2023-06-10T07:41:22;19.20;94.90
13426;DHT22;6785;57.918;12.530;2023-06-10T07:43:50;19.30;93.30
13426;DHT22;6785;57.918;12.530;2023-06-10T07:46:20;19.30;93.40
13426;DHT22;6785;57.918;12.530;2023-06-10T07:48:47;19.30;93.50
13426;DHT22;6785;57.918;12.530;2023-06-10T07:51:15;19.10;93.70
13426;DHT22;6785;57.918;12.530;2023-06-10T07:53:42;19.10;93.40
13426;DHT22;6785;57.918;12.530;2023-06-10T07:56:11;19.50;94.10
13426;DHT22;6785;57.918;12.530;2023-06-10T07:58:38;19.90;95.10
13426;DHT22;6785;57.918;12.530;2023-06-10T08:01:05;20.10;92.40
13426;DHT22;6785;57.918;12.530;2023-06-10T08:03:33;20.40;93.60
13426;DHT22;6785;57.918;12.530;2023-06-10T08:05:59;20.70;92.10
13426;DHT22;6785;57.918;12.530;2023-06-10T08:08:26;20.50;91.90
13426;DHT22;6785;57.918;12.530;2023-06-10T08:10:53;20.70;91.30
13426;DHT22;6785;57.918;12.530;2023-06-10T08:13:22;20.70;90.50
13426;DHT22;6785;57.918;12.530;2023-06-10T08:15:48;21.00;92.20
13426;DHT22;6785;57.918;12.530;2023-06-10T08:18:19;20.70;92.70
13426;DHT22;6785;57.918;12.530;2023-06-10T08:20:46;20.70;89.90
13426;DHT22;6785;57.918;12.530;2023-06-10T08:23:14;20.50;89.60
13426;DHT22;6785;57.918;12.530;2023-06-10T08:25:41;20.30;92.10
13426;DHT22;6785;57.918;12.530;2023-06-10T08:28:08;20.40;90.70
13426;DHT22;6785;57.918;12.530;2023-06-10T08:30:36;20.40;89.80
13426;DHT22;6785;57.918;12.530;2023-06-10T08:33:04;20.40;91.70
13426;DHT22;6785;57.918;12.530;2023-06-10T08:35:31;20.60;91.30
13426;DHT22;6785;57.918;12.530;2023-06-10T08:37:57;20.90;90.40
13426;DHT22;6785;57.918;12.530;2023-06-10T08:40:24;21.00;89.70
13426;DHT22;6785;57.918;12.530;2023-06-10T08:42:58;21.00;88.60
13426;DHT22;6785;57.918;12.530;2023-06-10T08:45:30;21.10;89.20
13426;DHT22;6785;57.918;12.530;2023-06-10T08:47:59;21.10;85.80
13426;DHT22;6785;57.918;12.530;2023-06-10T08:50:28;20.90;83.60
13426;DHT22;6785;57.918;12.530;2023-06-10T08:52:58;20.60;88.20
13426;DHT22;6785;57.918;12.530;2023-06-10T08:55:30;20.60;92.20
13426;DHT22;6785;57.918;12.530;2023-06-10T08:58:00;20.50;89.40
13426;DHT22;6785;57.918;12.530;2023-06-10T09:00:28;20.60;91.00
13426;DHT22;6785;57.918;12.530;2023-06-10T09:02:56;20.60;85.60
13426;DHT22;6785;57.918;12.530;2023-06-10T09:05:27;20.40;85.60
13426;DHT22;6785;57.918;12.530;2023-06-10T09:07:57;20.50;87.00
13426;DHT22;6785;57.918;12.530;2023-06-10T09:10:25;20.70;89.10
13426;DHT22;6785;57.918;12.530;2023-06-10T09:12:53;20.80;89.50
13426;DHT22;6785;57.918;12.530;2023-06-10T09:15:21;20.60;89.80
13426;DHT22;6785;57.918;12.530;2023-06-10T09:17:48;20.70;86.70
13426;DHT22;6785;57.918;12.530;2023-06-10T09:20:15;20.90;86.80
13426;DHT22;6785;57.918;12.530;2023-06-10T09:22:43;20.90;86.10
13426;DHT22;6785;57.918;12.530;2023-06-10T09:25:12;20.80;86.90
13426;DHT22;6785;57.918;12.530;2023-06-10T09:27:46;20.90;89.20
13426;DHT22;6785;57.918;12.530;2023-06-10T09:30:25;20.90;87.90
13426;DHT22;6785;57.918;12.530;2023-06-10T09:32:54;21.10;86.00
13426;DHT22;6785;57.918;12.530;2023-06-10T09:35:22;21.10;85.00
13426;DHT22;6785;57.918;12.530;2023-06-10T09:37:55;21.10;85.40
13426;DHT22;6785;57.918;12.530;2023-06-10T09:40:27;21.20;88.70
13426;DHT22;6785;57.918;12.530;2023-06-10T09:42:56;21.00;83.50
13426;DHT22;6785;57.918;12.530;2023-06-10T09:45:29;20.90;87.60
13426;DHT22;6785;57.918;12.530;2023-06-10T09:47:57;20.80;87.30
13426;DHT22;6785;57.918;12.530;2023-06-10T09:50:24;20.90;87.30
13426;DHT22;6785;57.918;12.530;2023-06-10T09:52:53;21.00;83.50
13426;DHT22;6785;57.918;12.530;2023-06-10T09:55:20;21.00;87.20
13426;DHT22;6785;57.918;12.530;2023-06-10T10:00:27;21.40;85.70
13426;DHT22;6785;57.918;12.530;2023-06-10T10:02:54;21.40;85.60
13426;DHT22;6785;57.918;12.530;2023-06-10T10:05:22;21.60;84.80
13426;DHT22;6785;57.918;12.530;2023-06-10T10:07:49;21.70;84.60
13426;DHT22;6785;57.918;12.530;2023-06-10T10:10:20;21.60;83.80
13426;DHT22;6785;57.918;12.530;2023-06-10T10:12:48;21.50;83.20
13426;DHT22;6785;57.918;12.530;2023-06-10T10:15:25;21.30;85.70
13426;DHT22;6785;57.918;12.530;2023-06-10T10:18:04;21.20;82.70
13426;DHT22;6785;57.918;12.530;2023-06-10T10:20:37;21.40;82.00
13426;DHT22;6785;57.918;12.530;2023-06-10T10:23:13;21.60;85.60
13426;DHT22;6785;57.918;12.530;2023-06-10T10:25:44;21.70;83.00
13426;DHT22;6785;57.918;12.530;2023-06-10T10:28:20;21.70;85.20
13426;DHT22;6785;57.918;12.530;2023-06-10T10:30:54;21.80;84.10
13426;DHT22;6785;57.918;12.530;2023-06-10T10:33:33;21.80;82.30
13426;DHT22;6785;57.918;12.530;2023-06-10T10:36:06;21.90;84.40
13426;DHT22;6785;57.918;12.530;2023-06-10T10:38:36;21.80;88.50
13426;DHT22;6785;57.918;12.530;2023-06-10T10:41:05;21.80;85.70
13426;DHT22;6785;57.918;12.530;2023-06-10T10:43:33;21.90;84.30
13426;DHT22;6785;57.918;12.530;2023-06-10T10:46:01;22.10;82.20
13426;DHT22;6785;57.918;12.530;2023-06-10T10:48:37;22.10;82.30
13426;DHT22;6785;57.918;12.530;2023-06-10T10:51:06;22.10;84.60
13426;DHT22;6785;57.918;12.530;2023-06-10T10:53:33;22.00;82.60
13426;DHT22;6785;57.918;12.530;2023-06-10T10:56:06;22.00;82.70
13426;DHT22;6785;57.918;12.530;2023-06-10T10:58:34;22.00;83.40
13426;DHT22;6785;57.918;12.530;2023-06-10T11:01:10;22.00;83.20
13426;DHT22;6785;57.918;12.530;2023-06-10T11:03:43;22.10;84.90
13426;DHT22;6785;57.918;12.530;2023-06-10T11:06:13;22.20;83.30
13426;DHT22;6785;57.918;12.530;2023-06-10T11:08:50;22.30;84.10
13426;DHT22;6785;57.918;12.530;2023-06-10T11:11:21;22.40;79.70
13426;DHT22;6785;57.918;12.530;2023-06-10T11:14:09;22.60;82.50
13426;DHT22;6785;57.918;12.530;2023-06-10T11:16:41;22.30;80.70
13426;DHT22;6785;57.918;12.530;2023-06-10T11:19:09;22.30;81.80
13426;DHT22;6785;57.918;12.530;2023-06-10T11:21:58;22.10;81.90
13426;DHT22;6785;57.918;12.530;2023-06-10T11:24:26;22.30;82.80
13426;DHT22;6785;57.918;12.530;2023-06-10T11:26:54;22.20;82.40
13426;DHT22;6785;57.918;12.530;2023-06-10T11:29:21;22.20;84.50
13426;DHT22;6785;57.918;12.530;2023-06-10T11:31:51;22.40;82.00
13426;DHT22;6785;57.918;12.530;2023-06-10T11:34:24;22.30;84.00
13426;DHT22;6785;57.918;12.530;2023-06-10T11:36:53;22.10;84.40
13426;DHT22;6785;57.918;12.530;2023-06-10T11:39:22;21.90;85.30
13426;DHT22;6785;57.918;12.530;2023-06-10T11:41:53;21.90;87.60
13426;DHT22;6785;57.918;12.530;2023-06-10T11:44:21;22.10;90.40
13426;DHT22;6785;57.918;12.530;2023-06-10T11:46:49;22.10;85.60
13426;DHT22;6785;57.918;12.530;2023-06-10T11:49:17;21.90;87.60
13426;DHT22;6785;57.918;12.530;2023-06-10T11:51:44;22.10;90.00
13426;DHT22;6785;57.918;12.530;2023-06-10T11:54:15;22.30;90.00
13426;DHT22;6785;57.918;12.530;2023-06-10T11:56:43;22.40;87.70
13426;DHT22;6785;57.918;12.530;2023-06-10T11:59:11;22.40;86.60
13426;DHT22;6785;57.918;12.530;2023-06-10T12:01:43;22.50;85.60
13426;DHT22;6785;57.918;12.530;2023-06-10T12:04:12;22.50;88.00
13426;DHT22;6785;57.918;12.530;2023-06-10T12:06:42;22.70;85.00
13426;DHT22;6785;57.918;12.530;2023-06-10T12:09:14;22.70;85.70
13426;DHT22;6785;57.918;12.530;2023-06-10T12:11:45;22.60;84.60
13426;DHT22;6785;57.918;12.530;2023-06-10T12:14:53;22.70;85.60
13426;DHT22;6785;57.918;12.530;2023-06-10T12:17:23;22.80;88.30
13426;DHT22;6785;57.918;12.530;2023-06-10T12:19:51;22.90;86.40
13426;DHT22;6785;57.918;12.530;2023-06-10T12:22:18;22.90;87.80
13426;DHT22;6785;57.918;12.530;2023-06-10T12:24:56;23.00;84.10
13426;DHT22;6785;57.918;12.530;2023-06-10T12:27:26;22.80;85.10
13426;DHT22;6785;57.918;12.530;2023-06-10T12:29:57;22.80;86.30
13426;DHT22;6785;57.918;12.530;2023-06-10T12:32:35;22.80;85.90
13426;DHT22;6785;57.918;12.530;2023-06-10T12:35:05;22.90;82.40
13426;DHT22;6785;57.918;12.530;2023-06-10T12:37:33;23.10;84.50
13426;DHT22;6785;57.918;12.530;2023-06-10T12:40:00;23.20;82.80
13426;DHT22;6785;57.918;12.530;2023-06-10T12:42:29;23.30;83.80
13426;DHT22;6785;57.918;12.530;2023-06-10T12:44:58;23.50;84.00
13426;DHT22;6785;57.918;12.530;2023-06-10T12:47:30;23.40;82.80
13426;DHT22;6785;57.918;12.530;2023-06-10T12:49:58;23.50;80.60
13426;DHT22;6785;57.918;12.530;2023-06-10T12:52:25;23.20;80.30
13426;DHT22;6785;57.918;12.530;2023-06-10T12:54:53;23.20;83.20
13426;DHT22;6785;57.918;12.530;2023-06-10T12:57:20;23.20;84.00
13426;DHT22;6785;57.918;12.530;2023-06-10T12:59:47;23.30;82.50
13426;DHT22;6785;57.918;12.530;2023-06-10T13:02:19;23.50;82.60
13426;DHT22;6785;57.918;12.530;2023-06-10T13:04:49;23.80;82.40
13426;DHT22;6785;57.918;12.530;2023-06-10T13:07:16;23.80;80.50
13426;DHT22;6785;57.918;12.530;2023-06-10T13:09:44;23.70;79.50
13426;DHT22;6785;57.918;12.530;2023-06-10T13:12:14;23.50;79.90
13426;DHT22;6785;57.918;12.530;2023-06-10T13:14:43;23.50;83.10
13426;DHT22;6785;57.918;12.530;2023-06-10T13:17:10;23.50;80.90
13426;DHT22;6785;57.918;12.530;2023-06-10T13:19:38;23.40;79.80
13426;DHT22;6785;57.918;12.530;2023-06-10T13:22:05;23.40;77.40
13426;DHT22;6785;57.918;12.530;2023-06-10T13:24:32;23.30;84.10
13426;DHT22;6785;57.918;12.530;2023-06-10T13:27:00;23.60;78.00
13426;DHT22;6785;57.918;12.530;2023-06-10T13:29:27;23.50;77.10
13426;DHT22;6785;57.918;12.530;2023-06-10T13:31:54;23.60;78.90
13426;DHT22;6785;57.918;12.530;2023-06-10T13:34:22;23.50;77.70
13426;DHT22;6785;57.918;12.530;2023-06-10T13:36:50;23.50;77.40
13426;DHT22;6785;57.918;12.530;2023-06-10T13:39:17;23.80;80.30
13426;DHT22;6785;57.918;12.530;2023-06-10T13:41:44;23.90;78.20
13426;DHT22;6785;57.918;12.530;2023-06-10T13:44:10;24.10;78.00
13426;DHT22;6785;57.918;12.530;2023-06-10T13:46:37;24.20;75.10
13426;DHT22;6785;57.918;12.530;2023-06-10T13:49:04;24.30;76.60
13426;DHT22;6785;57.918;12.530;2023-06-10T13:51:31;24.30;78.90
13426;DHT22;6785;57.918;12.530;2023-06-10T13:53:59;24.20;75.60
13426;DHT22;6785;57.918;12.530;2023-06-10T13:56:26;24.10;75.60
13426;DHT22;6785;57.918;12.530;2023-06-10T13:58:53;24.00;75.40
13426;DHT22;6785;57.918;12.530;2023-06-10T14:01:20;24.10;74.70
13426;DHT22;6785;57.918;12.530;2023-06-10T14:03:47;24.20;76.80
13426;DHT22;6785;57.918;12.530;2023-06-10T14:06:14;24.30;77.50
13426;DHT22;6785;57.918;12.530;2023-06-10T14:08:43;24.20;72.80
13426;DHT22;6785;57.918;12.530;2023-06-10T14:11:12;24.00;73.00
13426;DHT22;6785;57.918;12.530;2023-06-10T14:13:39;24.00;74.80
13426;DHT22;6785;57.918;12.530;2023-06-10T14:16:06;24.00;75.50
13426;DHT22;6785;57.918;12.530;2023-06-10T14:18:33;24.00;76.60
13426;DHT22;6785;57.918;12.530;2023-06-10T14:21:00;24.10;79.70
13426;DHT22;6785;57.918;12.530;2023-06-10T14:23:27;24.20;75.20
13426;DHT22;6785;57.918;12.530;2023-06-10T14:25:54;24.20;77.70
13426;DHT22;6785;57.918;12.530;2023-06-10T14:28:22;24.30;78.10
13426;DHT22;6785;57.918;12.530;2023-06-10T14:30:51;24.40;75.10
13426;DHT22;6785;57.918;12.530;2023-06-10T14:33:18;24.40;75.00
13426;DHT22;6785;57.918;12.530;2023-06-10T14:35:45;24.40;74.70
13426;DHT22;6785;57.918;12.530;2023-06-10T14:38:12;24.60;74.30
13426;DHT22;6785;57.918;12.530;2023-06-10T14:40:39;24.50;73.20
13426;DHT22;6785;57.918;12.530;2023-06-10T14:43:05;24.20;73.70
13426;DHT22;6785;57.918;12.530;2023-06-10T14:45:39;24.20;76.00
13426;DHT22;6785;57.918;12.530;2023-06-10T14:48:07;24.00;74.70
13426;DHT22;6785;57.918;12.530;2023-06-10T14:50:35;24.00;75.70
13426;DHT22;6785;57.918;12.530;2023-06-10T14:53:04;24.00;75.50
13426;DHT22;6785;57.918;12.530;2023-06-10T14:55:31;23.90;73.50
13426;DHT22;6785;57.918;12.530;2023-06-10T14:57:58;23.80;73.50
13426;DHT22;6785;57.918;12.530;2023-06-10T15:00:25;23.70;75.80
13426;DHT22;6785;57.918;12.530;2023-06-10T15:02:53;23.60;72.80
13426;DHT22;6785;57.918;12.530;2023-06-10T15:05:23;23.50;71.90
13426;DHT22;6785;57.918;12.530;2023-06-10T15:07:50;23.40;71.90
13426;DHT22;6785;57.918;12.530;2023-06-10T15:10:17;23.30;73.40
13426;DHT22;6785;57.918;12.530;2023-06-10T15:12:46;23.30;74.50
13426;DHT22;6785;57.918;12.530;2023-06-10T15:15:13;23.20;72.20
13426;DHT22;6785;57.918;12.530;2023-06-10T15:17:43;23.20;74.20
13426;DHT22;6785;57.918;12.530;2023-06-10T15:20:12;23.10;71.70
13426;DHT22;6785;57.918;12.530;2023-06-10T15:22:39;23.10;72.10
13426;DHT22;6785;57.918;12.530;2023-06-10T15:25:07;23.00;71.00
13426;DHT22;6785;57.918;12.530;2023-06-10T15:27:37;23.00;73.00
13426;DHT22;6785;57.918;12.530;2023-06-10T15:30:05;23.00;73.10
13426;DHT22;6785;57.918;12.530;2023-06-10T15:32:37;22.90;72.20
13426;DHT22;6785;57.918;12.530;2023-06-10T15:35:05;22.80;70.80
13426;DHT22;6785;57.918;12.530;2023-06-10T15:37:34;22.70;75.20
13426;DHT22;6785;57.918;12.530;2023-06-10T15:40:01;22.70;72.40
13426;DHT22;6785;57.918;12.530;2023-06-10T15:42:28;22.60;74.30
13426;DHT22;6785;57.918;12.530;2023-06-10T15:44:55;22.60;73.90